Time;durP1;ratioP1;P1;durP2;ratioP2;P2;SDS_P1;SDS_P2;PMS_P1;PMS_P2;Temp;Humidity;BMP_temperature;BMP_pressure;BME280_temperature;BME280_humidity;BME280_pressure;Samples;Min_cycle;Max_cycle;Signal;HPM_P1;HPM_P2
2023/07/02 00:01:27;;;;;;;4.70;2.30;;;;;;;;;;5040464;28;20033;-65
2023/07/02 00:04:16;;;;;;;4.28;2.13;;;;;;;;;;5041864;28;20034;-63
2023/07/02 00:07:01;;;;;;;2.67;2.17;;;;;;;;;;5027728;28;20503;-70
2023/07/02 00:09:46;;;;;;;2.47;2.22;;;;;;;;;;5041588;28;20124;-74
2023/07/02 00:12:32;;;;;;;3.50;2.15;;;;;;;;;;5028280;28;20042;-74
2023/07/02 00:15:17;;;;;;;2.65;2.03;;;;;;;;;;5038612;28;20068;-73
2023/07/02 00:18:02;;;;;;;4.25;2.33;;;;;;;;;;5025464;28;20494;-75
2023/07/02 00:20:47;;;;;;;4.55;2.75;;;;;;;;;;5017291;28;20065;-72
2023/07/02 00:23:33;;;;;;;6.45;2.72;;;;;;;;;;5027652;28;20053;-69
2023/07/02 00:26:18;;;;;;;4.68;2.90;;;;;;;;;;5027931;28;20037;-74
2023/07/02 00:29:05;;;;;;;4.70;2.30;;;;;;;;;;5027007;28;20034;-73
2023/07/02 00:31:50;;;;;;;3.33;2.40;;;;;;;;;;5028093;28;20029;-74
2023/07/02 00:34:36;;;;;;;2.75;2.00;;;;;;;;;;5041770;28;20392;-74
2023/07/02 00:37:21;;;;;;;3.63;2.35;;;;;;;;;;5016035;28;20025;-73
2023/07/02 00:40:06;;;;;;;2.53;2.25;;;;;;;;;;5038719;28;20107;-76
2023/07/02 00:42:52;;;;;;;3.15;1.98;;;;;;;;;;5045528;28;20037;-76
2023/07/02 00:45:39;;;;;;;2.85;2.20;;;;;;;;;;5031580;28;20021;-75
2023/07/02 00:48:24;;;;;;;3.67;2.17;;;;;;;;;;5031682;28;20034;-76
2023/07/02 00:51:11;;;;;;;3.38;2.08;;;;;;;;;;5025592;28;20069;-75
2023/07/02 00:53:57;;;;;;;3.58;2.17;;;;;;;;;;5029985;28;20036;-75
2023/07/02 00:56:43;;;;;;;4.03;2.70;;;;;;;;;;5045517;28;20043;-76
2023/07/02 00:59:29;;;;;;;2.63;1.85;;;;;;;;;;5019755;28;20094;-76
2023/07/02 01:02:14;;;;;;;8.98;2.38;;;;;;;;;;5031064;28;20122;-73
2023/07/02 01:04:59;;;;;;;3.75;2.35;;;;;;;;;;5030860;28;20108;-73
2023/07/02 01:07:45;;;;;;;5.50;2.47;;;;;;;;;;5031172;28;20029;-74
2023/07/02 01:10:31;;;;;;;6.65;3.78;;;;;;;;;;5030510;28;20040;-73
2023/07/02 01:13:19;;;;;;;7.95;3.85;;;;;;;;;;5031334;28;20052;-76
2023/07/02 01:16:04;;;;;;;5.80;3.30;;;;;;;;;;5030532;28;20045;-75
2023/07/02 01:18:54;;;;;;;3.63;2.45;;;;;;;;;;5031388;28;20017;-64
2023/07/02 01:21:39;;;;;;;3.33;2.08;;;;;;;;;;5030728;28;20131;-75
2023/07/02 01:24:24;;;;;;;4.65;2.28;;;;;;;;;;5018622;28;20029;-76
2023/07/02 01:27:10;;;;;;;3.92;2.22;;;;;;;;;;5030543;28;20041;-75
2023/07/02 01:29:55;;;;;;;2.92;2.08;;;;;;;;;;5030475;28;20611;-75
2023/07/02 01:32:41;;;;;;;3.28;2.10;;;;;;;;;;5030655;28;20022;-76
2023/07/02 01:35:26;;;;;;;4.70;2.50;;;;;;;;;;5016824;28;20048;-78
2023/07/02 01:38:11;;;;;;;2.95;2.00;;;;;;;;;;5030749;28;20255;-76
2023/07/02 01:40:56;;;;;;;2.63;1.98;;;;;;;;;;5029885;28;20037;-70
2023/07/02 01:43:41;;;;;;;2.95;2.28;;;;;;;;;;5028467;28;20022;-70
2023/07/02 01:46:27;;;;;;;2.92;2.00;;;;;;;;;;5016696;28;20032;-70
2023/07/02 01:49:12;;;;;;;4.55;2.15;;;;;;;;;;5030181;28;20037;-70
2023/07/02 01:51:57;;;;;;;4.00;2.30;;;;;;;;;;5019998;28;20064;-68
2023/07/02 01:54:43;;;;;;;4.70;2.40;;;;;;;;;;5030428;28;20025;-69
2023/07/02 01:57:30;;;;;;;2.67;1.83;;;;;;;;;;5030438;28;20037;-62
2023/07/02 02:00:16;;;;;;;3.55;2.13;;;;;;;;;;5029903;28;20193;-69
2023/07/02 02:03:01;;;;;;;3.80;2.35;;;;;;;;;;5030671;28;20029;-67
2023/07/02 02:05:46;;;;;;;4.90;2.22;;;;;;;;;;5030461;28;20116;-68
2023/07/02 02:08:31;;;;;;;3.33;2.17;;;;;;;;;;5017144;28;20113;-69
2023/07/02 02:11:16;;;;;;;4.97;2.60;;;;;;;;;;5030040;28;20075;-67
2023/07/02 02:14:02;;;;;;;5.03;2.33;;;;;;;;;;5030190;28;20080;-72
2023/07/02 02:16:47;;;;;;;4.60;2.53;;;;;;;;;;5033454;28;20032;-70
2023/07/02 02:19:32;;;;;;;3.92;2.33;;;;;;;;;;5029466;28;20563;-68
2023/07/02 02:22:17;;;;;;;2.63;2.20;;;;;;;;;;5015590;28;20492;-69
2023/07/02 02:25:03;;;;;;;3.63;2.42;;;;;;;;;;5029343;28;20029;-68
2023/07/02 02:27:48;;;;;;;4.28;2.20;;;;;;;;;;5029954;28;20046;-69
2023/07/02 02:30:33;;;;;;;3.30;2.00;;;;;;;;;;5029609;28;20434;-69
2023/07/02 02:33:19;;;;;;;3.25;1.85;;;;;;;;;;5029432;28;20025;-68
2023/07/02 02:36:04;;;;;;;4.85;2.50;;;;;;;;;;5029185;28;20028;-71
2023/07/02 02:38:49;;;;;;;3.92;2.08;;;;;;;;;;5029214;28;20083;-71
2023/07/02 02:41:34;;;;;;;3.00;1.95;;;;;;;;;;5029121;28;20376;-71
2023/07/02 02:44:20;;;;;;;4.68;2.15;;;;;;;;;;5029143;28;20017;-71
2023/07/02 02:47:05;;;;;;;4.25;2.30;;;;;;;;;;5029799;28;20392;-72
2023/07/02 02:49:50;;;;;;;5.63;2.50;;;;;;;;;;5029524;28;20563;-73
2023/07/02 02:52:35;;;;;;;5.70;2.65;;;;;;;;;;5015527;28;20029;-74
2023/07/02 02:55:21;;;;;;;4.43;2.65;;;;;;;;;;5032406;28;20036;-70
2023/07/02 02:58:06;;;;;;;2.58;1.95;;;;;;;;;;5022795;28;20037;-71
2023/07/02 03:00:51;;;;;;;4.47;2.55;;;;;;;;;;5028692;28;20053;-71
2023/07/02 03:03:44;;;;;;;3.78;2.08;;;;;;;;;;5029126;28;20469;-69
2023/07/02 03:06:30;;;;;;;3.10;2.10;;;;;;;;;;5028952;28;20069;-69
2023/07/02 03:09:15;;;;;;;7.63;2.40;;;;;;;;;;5028699;28;20025;-71
2023/07/02 03:12:00;;;;;;;3.30;1.88;;;;;;;;;;5029095;28;20033;-67
2023/07/02 03:14:47;;;;;;;3.40;1.90;;;;;;;;;;5028367;28;20038;-67
2023/07/02 03:17:32;;;;;;;3.22;2.08;;;;;;;;;;5029218;28;20715;-65
2023/07/02 03:20:18;;;;;;;6.57;2.35;;;;;;;;;;5028300;28;20030;-65
2023/07/02 03:23:03;;;;;;;4.95;2.15;;;;;;;;;;5022441;28;20075;-64
2023/07/02 03:25:48;;;;;;;3.38;2.15;;;;;;;;;;5017687;28;20033;-64
2023/07/02 03:28:34;;;;;;;4.90;2.08;;;;;;;;;;5028707;28;20138;-69
2023/07/02 03:31:20;;;;;;;3.08;2.08;;;;;;;;;;5028653;28;20044;-72
2023/07/02 03:34:06;;;;;;;4.72;2.25;;;;;;;;;;5014559;28;20546;-72
2023/07/02 03:36:52;;;;;;;4.55;2.17;;;;;;;;;;5028305;28;20033;-71
2023/07/02 03:39:37;;;;;;;3.15;2.13;;;;;;;;;;5028446;28;20069;-71
2023/07/02 03:42:22;;;;;;;4.75;2.33;;;;;;;;;;5028582;28;20120;-73
2023/07/02 03:45:07;;;;;;;3.42;2.38;;;;;;;;;;5028664;28;20452;-72
2023/07/02 03:47:53;;;;;;;5.57;2.58;;;;;;;;;;5015833;28;20033;-73
2023/07/02 03:50:38;;;;;;;4.93;2.67;;;;;;;;;;5028198;28;20064;-71
2023/07/02 03:53:23;;;;;;;6.13;3.10;;;;;;;;;;5027677;28;20144;-71
2023/07/02 03:56:08;;;;;;;4.30;2.47;;;;;;;;;;5034471;28;20511;-70
2023/07/02 03:58:54;;;;;;;7.20;2.70;;;;;;;;;;5028308;28;20139;-71
2023/07/02 04:01:39;;;;;;;4.03;2.85;;;;;;;;;;5027517;28;20037;-70
2023/07/02 04:04:24;;;;;;;6.10;2.92;;;;;;;;;;5027762;28;20033;-76
2023/07/02 04:07:09;;;;;;;7.22;2.05;;;;;;;;;;5027607;28;20033;-77
2023/07/02 04:09:54;;;;;;;5.32;2.53;;;;;;;;;;5014589;28;20037;-77
2023/07/02 04:12:40;;;;;;;5.10;2.78;;;;;;;;;;5028035;28;20116;-76
2023/07/02 04:15:26;;;;;;;9.32;3.50;;;;;;;;;;5027555;28;20068;-77
2023/07/02 04:18:11;;;;;;;5.38;2.80;;;;;;;;;;5028281;28;20043;-78
2023/07/02 04:20:58;;;;;;;5.78;3.05;;;;;;;;;;5027914;28;20043;-76
2023/07/02 04:23:43;;;;;;;7.63;3.15;;;;;;;;;;5025564;28;20036;-71
2023/07/02 04:26:29;;;;;;;4.07;2.05;;;;;;;;;;5027554;28;20025;-70
2023/07/02 04:29:14;;;;;;;6.93;3.10;;;;;;;;;;5041705;28;20132;-69
2023/07/02 04:31:59;;;;;;;6.15;2.85;;;;;;;;;;5027368;28;20431;-70
2023/07/02 04:34:45;;;;;;;6.22;2.83;;;;;;;;;;5028099;28;20313;-69
2023/07/02 04:37:30;;;;;;;5.28;3.10;;;;;;;;;;5027678;28;20033;-68
2023/07/02 04:40:15;;;;;;;8.35;2.97;;;;;;;;;;5027180;28;20631;-71
2023/07/02 04:43:00;;;;;;;6.10;3.42;;;;;;;;;;5027997;28;20038;-77
2023/07/02 04:45:48;;;;;;;5.65;3.30;;;;;;;;;;5027660;28;20483;-76
2023/07/02 04:48:33;;;;;;;9.32;2.70;;;;;;;;;;5027804;28;20036;-75
2023/07/02 04:51:20;;;;;;;9.60;3.03;;;;;;;;;;5027500;28;20112;-75
2023/07/02 04:54:05;;;;;;;7.28;3.63;;;;;;;;;;5028376;28;20103;-76
2023/07/02 04:56:50;;;;;;;8.13;3.45;;;;;;;;;;5034603;28;20029;-75
2023/07/02 04:59:36;;;;;;;7.65;2.88;;;;;;;;;;5027545;28;20041;-69
2023/07/02 05:02:21;;;;;;;6.25;2.92;;;;;;;;;;5024089;28;20049;-63
2023/07/02 05:05:07;;;;;;;4.85;2.78;;;;;;;;;;5027409;28;20087;-63
2023/07/02 05:07:54;;;;;;;5.30;3.25;;;;;;;;;;5027568;28;20061;-64
2023/07/02 05:10:39;;;;;;;6.00;3.38;;;;;;;;;;5027459;28;20068;-63
2023/07/02 05:13:24;;;;;;;4.35;2.90;;;;;;;;;;5015167;28;20033;-61
2023/07/02 05:16:10;;;;;;;5.25;3.15;;;;;;;;;;5027089;28;20389;-64
2023/07/02 05:18:55;;;;;;;6.60;3.10;;;;;;;;;;5027383;28;20285;-69
2023/07/02 05:21:41;;;;;;;5.22;2.95;;;;;;;;;;5027168;28;20052;-68
2023/07/02 05:24:26;;;;;;;4.65;2.60;;;;;;;;;;5021425;28;20033;-69
2023/07/02 05:27:11;;;;;;;4.30;2.67;;;;;;;;;;5017017;28;20723;-69
2023/07/02 05:29:58;;;;;;;4.25;2.90;;;;;;;;;;5031058;28;20033;-69
2023/07/02 05:32:43;;;;;;;5.38;3.30;;;;;;;;;;5030779;28;20036;-69
2023/07/02 05:35:28;;;;;;;5.78;3.25;;;;;;;;;;5030758;28;20037;-70
2023/07/02 05:38:14;;;;;;;6.10;3.30;;;;;;;;;;5030942;28;20037;-70
2023/07/02 05:40:59;;;;;;;6.72;3.13;;;;;;;;;;5030141;28;20458;-69
2023/07/02 05:43:44;;;;;;;6.85;3.22;;;;;;;;;;5030647;28;20037;-68
2023/07/02 05:46:29;;;;;;;6.18;3.10;;;;;;;;;;5030431;28;20037;-69
2023/07/02 05:49:14;;;;;;;11.43;3.20;;;;;;;;;;5030358;28;20060;-69
2023/07/02 05:51:59;;;;;;;6.78;3.25;;;;;;;;;;5030028;28;20053;-69
2023/07/02 05:54:45;;;;;;;8.02;3.40;;;;;;;;;;5050653;28;20052;-68
2023/07/02 05:57:30;;;;;;;6.47;3.97;;;;;;;;;;5033897;28;20040;-63
2023/07/02 06:00:15;;;;;;;6.72;3.30;;;;;;;;;;5030192;28;20029;-62
2023/07/02 06:03:01;;;;;;;6.13;3.65;;;;;;;;;;5029974;28;20033;-63
2023/07/02 06:05:47;;;;;;;7.43;4.15;;;;;;;;;;5030260;28;20444;-64
2023/07/02 06:08:33;;;;;;;5.07;3.22;;;;;;;;;;5030160;28;20041;-64
2023/07/02 06:11:18;;;;;;;7.75;3.85;;;;;;;;;;5029941;28;20032;-64
2023/07/02 06:14:03;;;;;;;12.02;5.20;;;;;;;;;;5029976;28;20104;-68
2023/07/02 06:16:48;;;;;;;11.38;4.50;;;;;;;;;;5030003;28;20038;-72
2023/07/02 06:19:34;;;;;;;9.50;4.95;;;;;;;;;;5029844;28;20102;-72
2023/07/02 06:22:19;;;;;;;11.13;4.93;;;;;;;;;;5020936;28;20102;-72
2023/07/02 06:25:04;;;;;;;9.73;5.10;;;;;;;;;;5034016;28;20588;-73
2023/07/02 06:27:50;;;;;;;10.38;5.43;;;;;;;;;;5030105;28;20040;-72
2023/07/02 06:30:35;;;;;;;10.50;6.00;;;;;;;;;;5029509;28;20468;-73
2023/07/02 06:33:20;;;;;;;14.18;6.50;;;;;;;;;;5035012;28;20076;-61
2023/07/02 06:36:05;;;;;;;13.77;7.50;;;;;;;;;;5029780;28;20030;-65
2023/07/02 06:38:51;;;;;;;16.45;7.07;;;;;;;;;;5029561;28;20404;-64
2023/07/02 06:41:36;;;;;;;13.25;7.50;;;;;;;;;;5029043;28;20033;-65
2023/07/02 06:44:21;;;;;;;12.95;6.88;;;;;;;;;;5029436;28;20028;-64
2023/07/02 06:47:06;;;;;;;16.15;7.03;;;;;;;;;;5029055;28;20179;-67
2023/07/02 06:49:52;;;;;;;15.68;8.13;;;;;;;;;;5029587;28;20361;-79
2023/07/02 06:52:37;;;;;;;16.40;7.47;;;;;;;;;;5029010;28;20033;-66
2023/07/02 06:55:23;;;;;;;13.90;7.45;;;;;;;;;;5040602;28;20040;-68
2023/07/02 06:58:09;;;;;;;17.77;7.55;;;;;;;;;;5024795;28;20033;-69
2023/07/02 07:00:54;;;;;;;16.05;7.60;;;;;;;;;;5028677;28;20037;-68
2023/07/02 07:03:39;;;;;;;15.10;8.50;;;;;;;;;;5028508;28;20392;-68
2023/07/02 07:06:24;;;;;;;10.98;6.65;;;;;;;;;;5041683;28;20045;-69
2023/07/02 07:09:10;;;;;;;15.60;8.05;;;;;;;;;;5029074;28;20032;-68
2023/07/02 07:11:55;;;;;;;14.02;7.97;;;;;;;;;;5028595;28;20021;-69
2023/07/02 07:14:41;;;;;;;14.73;7.22;;;;;;;;;;5028463;28;20041;-67
2023/07/02 07:17:26;;;;;;;13.80;7.63;;;;;;;;;;5029183;28;20489;-68
2023/07/02 07:20:11;;;;;;;17.63;7.63;;;;;;;;;;5026030;28;20031;-68
2023/07/02 07:22:57;;;;;;;14.45;8.68;;;;;;;;;;5029121;28;20427;-69
2023/07/02 07:25:42;;;;;;;17.60;10.32;;;;;;;;;;5026081;28;20029;-68
2023/07/02 07:28:27;;;;;;;19.88;10.75;;;;;;;;;;5028223;28;20044;-63
2023/07/02 07:31:12;;;;;;;15.00;9.32;;;;;;;;;;5028320;28;20025;-64
2023/07/02 07:33:57;;;;;;;19.10;10.90;;;;;;;;;;5028482;28;20045;-63
2023/07/02 07:36:43;;;;;;;19.13;9.90;;;;;;;;;;5028287;28;20025;-62
2023/07/02 07:39:28;;;;;;;17.75;10.77;;;;;;;;;;5016357;28;20030;-62
2023/07/02 07:42:15;;;;;;;18.15;10.82;;;;;;;;;;5027779;28;20488;-61
2023/07/02 07:45:00;;;;;;;16.65;11.00;;;;;;;;;;5027863;28;20396;-75
2023/07/02 07:47:45;;;;;;;19.15;10.98;;;;;;;;;;5028071;28;20120;-64
2023/07/02 07:50:30;;;;;;;19.05;11.75;;;;;;;;;;5027892;28;20471;-73
2023/07/02 07:53:15;;;;;;;18.42;9.50;;;;;;;;;;5028028;28;20332;-73
2023/07/02 07:56:01;;;;;;;18.70;9.95;;;;;;;;;;5040446;28;20029;-72
2023/07/02 07:58:46;;;;;;;17.05;10.85;;;;;;;;;;5014270;28;20029;-73
2023/07/02 08:01:31;;;;;;;17.70;10.50;;;;;;;;;;5027905;28;20029;-75
2023/07/02 08:04:16;;;;;;;20.27;10.73;;;;;;;;;;5028014;28;20037;-74
2023/07/02 08:07:04;;;;;;;18.63;11.05;;;;;;;;;;5027965;28;20037;-73
2023/07/02 08:09:49;;;;;;;17.58;10.68;;;;;;;;;;5014131;28;20120;-74
2023/07/02 08:12:35;;;;;;;21.05;10.57;;;;;;;;;;5027587;28;20116;-74
2023/07/02 08:15:23;;;;;;;23.15;11.52;;;;;;;;;;5014004;28;20047;-74
2023/07/02 08:18:09;;;;;;;17.02;10.30;;;;;;;;;;5014188;28;20045;-73
2023/07/02 08:20:54;;;;;;;24.20;10.50;;;;;;;;;;5028068;28;20038;-74
2023/07/02 08:23:42;;;;;;;20.48;10.88;;;;;;;;;;5024461;28;20465;-68
2023/07/02 08:26:27;;;;;;;20.63;10.15;;;;;;;;;;5013673;28;20029;-66
2023/07/02 08:29:12;;;;;;;21.80;11.98;;;;;;;;;;5040335;28;20116;-66
2023/07/02 08:31:57;;;;;;;21.17;11.07;;;;;;;;;;5014412;28;20101;-68
2023/07/02 08:34:43;;;;;;;21.10;10.98;;;;;;;;;;5019373;28;20033;-67
2023/07/02 08:37:28;;;;;;;19.77;10.65;;;;;;;;;;5028212;28;20413;-67
2023/07/02 08:40:17;;;;;;;21.00;11.60;;;;;;;;;;5027841;28;20115;-80
2023/07/02 08:43:03;;;;;;;18.02;10.63;;;;;;;;;;5027379;28;20029;-73
2023/07/02 08:45:48;;;;;;;22.67;12.10;;;;;;;;;;5027337;28;20037;-74
2023/07/02 08:48:34;;;;;;;25.27;12.95;;;;;;;;;;5027250;28;20041;-73
2023/07/02 08:54:37;;;;;;;22.38;10.95;;;;;;;;;;5014914;28;20147;-75
2023/07/02 08:57:22;;;;;;;20.10;10.10;;;;;;;;;;5038686;28;20036;-73
2023/07/02 09:00:09;;;;;;;18.25;11.07;;;;;;;;;;5031429;28;20028;-69
2023/07/02 09:02:54;;;;;;;16.27;10.55;;;;;;;;;;5031133;28;20465;-65
2023/07/02 09:05:49;;;;;;;19.95;11.20;;;;;;;;;;5031461;28;20167;-66
2023/07/02 09:08:34;;;;;;;19.58;10.48;;;;;;;;;;5031333;28;20175;-64
2023/07/02 09:11:20;;;;;;;16.30;9.25;;;;;;;;;;5030681;28;20064;-63
2023/07/02 09:14:05;;;;;;;14.90;8.95;;;;;;;;;;5030379;28;20618;-64
2023/07/02 09:17:00;;;;;;;17.33;9.55;;;;;;;;;;5031538;28;20021;-69
2023/07/02 09:19:50;;;;;;;19.98;10.90;;;;;;;;;;5030886;28;20468;-70
2023/07/02 09:22:35;;;;;;;16.38;9.48;;;;;;;;;;5030290;28;20501;-70
2023/07/02 09:25:20;;;;;;;16.70;10.60;;;;;;;;;;5030665;28;20022;-69
2023/07/02 09:28:19;;;;;;;17.95;10.63;;;;;;;;;;5030807;28;20052;-70
2023/07/02 09:31:04;;;;;;;16.97;10.87;;;;;;;;;;5019724;28;20030;-69
2023/07/02 09:33:49;;;;;;;19.48;10.95;;;;;;;;;;5016743;28;20674;-70
2023/07/02 09:36:40;;;;;;;18.98;10.80;;;;;;;;;;5030773;28;20025;-67
2023/07/02 09:39:26;;;;;;;20.73;10.27;;;;;;;;;;5027257;28;20032;-69
2023/07/02 09:42:12;;;;;;;19.75;11.85;;;;;;;;;;5030428;28;20123;-69
2023/07/02 09:45:02;;;;;;;15.50;9.45;;;;;;;;;;5030583;28;20112;-69
2023/07/02 09:47:49;;;;;;;15.30;9.00;;;;;;;;;;5030251;28;20545;-71
2023/07/02 09:50:34;;;;;;;16.08;9.88;;;;;;;;;;5030235;28;20027;-71
2023/07/02 09:53:20;;;;;;;16.38;9.73;;;;;;;;;;5030182;28;20087;-63
2023/07/02 09:56:07;;;;;;;17.25;10.45;;;;;;;;;;5042538;28;20025;-76
2023/07/02 09:58:52;;;;;;;18.77;10.88;;;;;;;;;;5030231;28;20116;-67
2023/07/02 10:01:38;;;;;;;16.25;9.88;;;;;;;;;;5004481;28;20064;-67
2023/07/02 10:04:26;;;;;;;17.85;9.18;;;;;;;;;;5029852;28;20025;-67
2023/07/02 10:07:12;;;;;;;17.88;10.82;;;;;;;;;;5029630;28;20555;-68
2023/07/02 10:09:58;;;;;;;14.57;10.02;;;;;;;;;;5029223;28;20401;-68
2023/07/02 10:12:46;;;;;;;21.38;10.38;;;;;;;;;;5016212;28;20099;-63
2023/07/02 10:15:31;;;;;;;18.27;10.57;;;;;;;;;;5043329;28;20059;-73
2023/07/02 10:18:26;;;;;;;22.27;11.77;;;;;;;;;;5030032;28;20043;-72
2023/07/02 10:21:15;;;;;;;19.40;11.98;;;;;;;;;;5029421;28;20037;-70
2023/07/02 10:24:14;;;;;;;17.58;11.75;;;;;;;;;;5026429;28;20037;-73
2023/07/02 10:27:05;;;;;;;19.10;11.50;;;;;;;;;;5026613;28;20064;-70
2023/07/02 10:29:50;;;;;;;18.77;12.15;;;;;;;;;;5026795;28;20223;-71
2023/07/02 10:32:37;;;;;;;18.95;12.43;;;;;;;;;;5029550;28;20021;-70
2023/07/02 10:35:25;;;;;;;21.13;12.38;;;;;;;;;;5025216;28;20128;-69
2023/07/02 10:38:15;;;;;;;18.75;11.57;;;;;;;;;;5020159;28;20033;-69
2023/07/02 10:41:00;;;;;;;23.48;12.38;;;;;;;;;;5002229;28;20123;-68
2023/07/02 10:43:46;;;;;;;18.67;12.02;;;;;;;;;;5028863;28;20449;-69
2023/07/02 10:46:31;;;;;;;17.58;12.10;;;;;;;;;;5029195;28;20144;-67
2023/07/02 10:49:17;;;;;;;19.80;11.43;;;;;;;;;;5029164;28;20030;-67
2023/07/02 10:52:03;;;;;;;21.85;11.52;;;;;;;;;;5029364;28;20026;-79
2023/07/02 10:54:49;;;;;;;19.02;11.85;;;;;;;;;;5045291;28;20476;-78
2023/07/02 10:57:34;;;;;;;18.75;11.75;;;;;;;;;;5032704;28;20175;-78
2023/07/02 11:00:19;;;;;;;19.15;12.10;;;;;;;;;;5029088;28;20111;-78
2023/07/02 11:03:05;;;;;;;18.52;13.27;;;;;;;;;;5015318;28;20021;-77
2023/07/02 11:05:50;;;;;;;20.75;12.45;;;;;;;;;;5029505;28;20029;-78
2023/07/02 11:08:36;;;;;;;19.52;12.48;;;;;;;;;;5028640;28;20388;-76
2023/07/02 11:11:22;;;;;;;26.77;12.73;;;;;;;;;;5014763;28;20079;-68
2023/07/02 11:14:07;;;;;;;18.88;11.77;;;;;;;;;;5028206;28;20519;-68
2023/07/02 11:16:56;;;;;;;20.58;11.30;;;;;;;;;;5029168;28;20028;-67
2023/07/02 11:19:50;;;;;;;18.95;12.00;;;;;;;;;;5028116;28;20054;-67
2023/07/02 11:22:35;;;;;;;19.00;11.98;;;;;;;;;;5028472;28;20033;-67
2023/07/02 11:25:21;;;;;;;18.10;12.45;;;;;;;;;;5028476;28;20108;-73
2023/07/02 11:28:06;;;;;;;17.80;11.43;;;;;;;;;;5028956;28;20030;-70
2023/07/02 11:30:51;;;;;;;17.65;11.02;;;;;;;;;;5028607;28;20030;-66
2023/07/02 11:33:37;;;;;;;26.13;13.57;;;;;;;;;;5026088;28;20049;-64
2023/07/02 11:36:24;;;;;;;20.67;11.65;;;;;;;;;;5028335;28;20049;-63
2023/07/02 11:39:10;;;;;;;17.83;11.57;;;;;;;;;;5028239;28;20138;-63
2023/07/02 11:41:55;;;;;;;18.95;11.48;;;;;;;;;;5028624;28;20632;-64
2023/07/02 11:44:40;;;;;;;15.60;9.93;;;;;;;;;;5028207;28;20029;-68
2023/07/02 11:47:27;;;;;;;19.73;11.55;;;;;;;;;;5028511;28;20379;-68
2023/07/02 11:50:12;;;;;;;18.08;11.60;;;;;;;;;;5028378;28;20029;-68
2023/07/02 11:52:58;;;;;;;16.45;10.70;;;;;;;;;;5028372;28;20029;-69
2023/07/02 11:55:43;;;;;;;21.63;12.10;;;;;;;;;;5040766;28;20119;-68
2023/07/02 11:58:28;;;;;;;19.92;11.20;;;;;;;;;;5028236;28;20392;-68
2023/07/02 12:01:13;;;;;;;17.55;10.38;;;;;;;;;;5027755;28;20033;-69
2023/07/02 12:03:59;;;;;;;17.58;11.82;;;;;;;;;;5028250;28;20029;-64
2023/07/02 12:06:44;;;;;;;18.05;10.48;;;;;;;;;;5016685;28;20421;-70
2023/07/02 12:09:29;;;;;;;17.85;10.95;;;;;;;;;;5027686;28;20029;-69
2023/07/02 12:12:15;;;;;;;20.05;12.38;;;;;;;;;;5028120;28;20025;-68
2023/07/02 12:15:00;;;;;;;18.48;11.40;;;;;;;;;;5027387;28;20778;-69
2023/07/02 12:17:45;;;;;;;16.15;10.98;;;;;;;;;;5027875;28;20025;-70
2023/07/02 12:20:30;;;;;;;15.88;10.77;;;;;;;;;;5027385;28;20037;-68
2023/07/02 12:23:16;;;;;;;20.92;12.02;;;;;;;;;;5022169;28;20037;-77
2023/07/02 12:26:01;;;;;;;16.52;10.88;;;;;;;;;;5027841;28;20048;-67
2023/07/02 12:28:46;;;;;;;31.85;12.57;;;;;;;;;;5027590;28;20033;-68
2023/07/02 12:31:31;;;;;;;19.50;10.80;;;;;;;;;;5027343;28;20480;-69
2023/07/02 12:34:17;;;;;;;20.95;11.43;;;;;;;;;;5031575;28;20078;-70
2023/07/02 12:37:03;;;;;;;20.25;12.20;;;;;;;;;;5031590;28;20029;-67
2023/07/02 12:39:49;;;;;;;23.45;11.18;;;;;;;;;;5031828;28;20124;-72
2023/07/02 12:42:34;;;;;;;21.58;11.70;;;;;;;;;;5031736;28;20036;-69
2023/07/02 12:45:19;;;;;;;17.63;11.20;;;;;;;;;;5031429;28;20033;-69
2023/07/02 12:48:04;;;;;;;17.55;10.77;;;;;;;;;;5017932;28;20107;-69
2023/07/02 12:50:54;;;;;;;18.77;12.48;;;;;;;;;;5031456;28;20034;-69
2023/07/02 12:53:39;;;;;;;21.15;11.60;;;;;;;;;;5024339;28;20070;-69
2023/07/02 12:56:25;;;;;;;18.45;12.18;;;;;;;;;;5038666;28;20029;-68
2023/07/02 12:59:10;;;;;;;17.10;10.27;;;;;;;;;;5027330;28;20033;-67
2023/07/02 13:01:55;;;;;;;21.50;11.50;;;;;;;;;;5031259;28;20487;-67
2023/07/02 13:04:40;;;;;;;17.48;11.48;;;;;;;;;;5031287;28;20021;-66
2023/07/02 13:07:26;;;;;;;17.20;10.52;;;;;;;;;;5031138;28;20456;-65
2023/07/02 13:10:11;;;;;;;17.63;11.60;;;;;;;;;;5022448;28;20029;-65
2023/07/02 13:12:56;;;;;;;20.80;11.77;;;;;;;;;;5030879;28;20586;-65
2023/07/02 13:15:41;;;;;;;16.65;10.95;;;;;;;;;;5016772;28;20053;-64
2023/07/02 13:18:27;;;;;;;18.60;11.95;;;;;;;;;;5030621;28;20503;-69
2023/07/02 13:21:12;;;;;;;18.60;11.95;;;;;;;;;;5030803;28;20065;-68
2023/07/02 13:23:57;;;;;;;15.90;9.93;;;;;;;;;;5030780;28;20033;-68
2023/07/02 13:26:42;;;;;;;14.80;10.57;;;;;;;;;;5030607;28;20482;-68
2023/07/02 13:29:27;;;;;;;22.65;11.40;;;;;;;;;;5030631;28;20060;-68
2023/07/02 13:32:13;;;;;;;21.25;12.27;;;;;;;;;;5030495;28;20017;-67
2023/07/02 13:34:58;;;;;;;18.17;10.35;;;;;;;;;;5030823;28;20037;-71
2023/07/02 13:37:43;;;;;;;18.52;11.68;;;;;;;;;;5030790;28;20037;-65
2023/07/02 13:40:28;;;;;;;15.73;10.38;;;;;;;;;;5044170;28;20408;-64
2023/07/02 13:43:13;;;;;;;19.88;10.88;;;;;;;;;;5030420;28;20038;-64
2023/07/02 13:45:59;;;;;;;17.48;10.77;;;;;;;;;;5030465;28;20052;-65
2023/07/02 13:48:44;;;;;;;18.77;10.63;;;;;;;;;;5030754;28;20022;-68
2023/07/02 13:51:29;;;;;;;16.02;10.82;;;;;;;;;;5030398;28;20116;-64
2023/07/02 13:54:15;;;;;;;17.50;10.88;;;;;;;;;;5031150;28;20478;-68
2023/07/02 13:57:00;;;;;;;16.67;10.60;;;;;;;;;;5030172;28;20052;-66
2023/07/02 13:59:45;;;;;;;16.58;10.80;;;;;;;;;;5027865;28;20026;-64
2023/07/02 14:02:31;;;;;;;18.00;10.93;;;;;;;;;;5027513;28;20400;-66
2023/07/02 14:05:16;;;;;;;19.58;10.93;;;;;;;;;;5027733;28;20039;-69
2023/07/02 14:08:01;;;;;;;17.30;10.80;;;;;;;;;;5030310;28;20022;-66
2023/07/02 14:10:47;;;;;;;16.73;9.70;;;;;;;;;;5030205;28;20427;-67
2023/07/02 14:13:32;;;;;;;17.52;11.23;;;;;;;;;;5018656;28;20020;-68
2023/07/02 14:16:17;;;;;;;17.33;11.02;;;;;;;;;;5029971;28;20168;-69
2023/07/02 14:19:02;;;;;;;19.55;10.80;;;;;;;;;;5030069;28;20033;-69
2023/07/02 14:21:48;;;;;;;20.35;10.75;;;;;;;;;;5029565;28;20492;-68
2023/07/02 14:24:34;;;;;;;21.02;12.88;;;;;;;;;;5029484;28;20473;-69
2023/07/02 14:27:19;;;;;;;20.48;11.85;;;;;;;;;;5029654;28;20091;-68
2023/07/02 14:30:07;;;;;;;21.05;11.85;;;;;;;;;;5029613;28;20026;-77
2023/07/02 14:32:52;;;;;;;18.63;11.52;;;;;;;;;;5030012;28;20033;-69
2023/07/02 14:35:37;;;;;;;16.98;11.10;;;;;;;;;;5029045;28;20495;-68
2023/07/02 14:38:23;;;;;;;16.75;11.20;;;;;;;;;;5029907;28;20033;-68
2023/07/02 14:41:08;;;;;;;18.38;11.15;;;;;;;;;;5029322;28;20048;-69
2023/07/02 14:43:53;;;;;;;18.48;11.38;;;;;;;;;;5029491;28;20031;-68
2023/07/02 14:46:39;;;;;;;18.73;11.18;;;;;;;;;;5029489;28;20090;-68
2023/07/02 14:49:25;;;;;;;18.77;11.13;;;;;;;;;;5029468;28;20023;-79
2023/07/02 14:52:12;;;;;;;15.90;10.07;;;;;;;;;;5023934;28;20029;-70
2023/07/02 14:54:59;;;;;;;20.30;11.98;;;;;;;;;;5032440;28;20024;-70
2023/07/02 14:57:44;;;;;;;20.92;12.77;;;;;;;;;;5029216;28;20104;-68
2023/07/02 15:00:29;;;;;;;17.95;10.73;;;;;;;;;;5028974;28;20075;-69
2023/07/02 15:03:15;;;;;;;17.45;11.25;;;;;;;;;;5016978;28;20206;-69
2023/07/02 15:06:14;;;;;;;17.65;11.43;;;;;;;;;;5028804;28;20036;-69
2023/07/02 15:08:59;;;;;;;17.70;11.23;;;;;;;;;;5022156;28;20037;-77
2023/07/02 15:11:44;;;;;;;18.90;12.02;;;;;;;;;;5028698;28;20033;-66
2023/07/02 15:14:29;;;;;;;17.00;11.20;;;;;;;;;;5028452;28;20527;-68
2023/07/02 15:17:15;;;;;;;15.30;9.65;;;;;;;;;;5028894;28;20496;-67
2023/07/02 15:20:00;;;;;;;19.27;11.57;;;;;;;;;;5028360;28;20434;-66
2023/07/02 15:22:45;;;;;;;19.60;12.18;;;;;;;;;;5021818;28;20116;-67
2023/07/02 15:25:31;;;;;;;19.95;11.27;;;;;;;;;;5027327;28;20097;-69
2023/07/02 15:28:16;;;;;;;18.70;11.88;;;;;;;;;;5028360;28;20033;-67
2023/07/02 15:31:03;;;;;;;16.90;11.32;;;;;;;;;;5028017;28;20468;-65
2023/07/02 15:33:49;;;;;;;22.42;11.45;;;;;;;;;;5028713;28;20045;-67
2023/07/02 15:36:35;;;;;;;18.35;11.57;;;;;;;;;;5028550;28;20443;-66
2023/07/02 15:39:22;;;;;;;18.88;11.60;;;;;;;;;;5013434;28;20029;-69
2023/07/02 15:42:07;;;;;;;18.38;11.02;;;;;;;;;;5025481;28;20037;-67
2023/07/02 15:44:54;;;;;;;19.63;11.32;;;;;;;;;;5027438;28;20088;-78
2023/07/02 15:47:39;;;;;;;17.17;11.25;;;;;;;;;;5028137;28;20120;-66
2023/07/02 15:50:24;;;;;;;17.17;11.05;;;;;;;;;;5027691;28;20027;-66
2023/07/02 15:53:10;;;;;;;20.95;13.02;;;;;;;;;;5025318;28;20043;-67
2023/07/02 15:55:56;;;;;;;18.63;11.20;;;;;;;;;;5032959;28;20025;-69
2023/07/02 15:58:41;;;;;;;17.45;11.45;;;;;;;;;;5028686;28;20036;-65
2023/07/02 16:01:27;;;;;;;21.45;12.48;;;;;;;;;;5028133;28;20032;-66
2023/07/02 16:04:12;;;;;;;17.52;10.25;;;;;;;;;;5028153;28;20029;-68
2023/07/02 16:06:57;;;;;;;17.60;11.20;;;;;;;;;;5027747;28;20037;-70
2023/07/02 16:09:43;;;;;;;17.67;10.45;;;;;;;;;;5027855;28;20156;-69
2023/07/02 16:12:28;;;;;;;17.80;11.63;;;;;;;;;;5026899;28;20388;-68
2023/07/02 16:15:13;;;;;;;17.38;10.73;;;;;;;;;;5026531;28;20050;-68
2023/07/02 16:17:58;;;;;;;16.08;10.68;;;;;;;;;;5027897;28;20124;-68
2023/07/02 16:20:53;;;;;;;19.55;11.23;;;;;;;;;;5027463;28;20132;-68